Time;durP1;ratioP1;P1;durP2;ratioP2;P2;SDS_P1;SDS_P2;PMS_P1;PMS_P2;Temp;Humidity;BMP_temperature;BMP_pressure;BME280_temperature;BME280_humidity;BME280_pressure;Samples;Min_cycle;Max_cycle;Signal;HPM_P1;HPM_P2
2021/10/30 00:00:54;;;;;;;4.93;4.43;;;;;;;;;;5056453;28;20595;-87
2021/10/30 00:03:22;;;;;;;5.18;4.43;;;;;;;;;;5060770;28;20239;-86
2021/10/30 00:05:51;;;;;;;4.63;4.25;;;;;;;;;;5062039;28;20207;-87
2021/10/30 00:08:19;;;;;;;4.93;4.20;;;;;;;;;;5061828;28;20194;-86
2021/10/30 00:10:46;;;;;;;5.22;4.72;;;;;;;;;;5060647;28;20203;-86
2021/10/30 00:13:14;;;;;;;4.10;3.75;;;;;;;;;;5063612;28;20182;-87
2021/10/30 00:15:44;;;;;;;4.45;4.07;;;;;;;;;;5062762;28;20309;-87
2021/10/30 00:18:11;;;;;;;5.60;5.20;;;;;;;;;;5060880;28;20186;-86
2021/10/30 00:20:38;;;;;;;5.93;4.65;;;;;;;;;;5059723;28;20225;-86
2021/10/30 00:23:07;;;;;;;5.20;4.70;;;;;;;;;;5060783;28;20190;-87
2021/10/30 00:25:34;;;;;;;5.95;5.43;;;;;;;;;;5061102;28;20212;-85
2021/10/30 00:28:02;;;;;;;4.75;4.40;;;;;;;;;;5062387;28;20204;-87
2021/10/30 00:30:29;;;;;;;6.95;5.82;;;;;;;;;;5062683;28;20224;-87
2021/10/30 00:32:58;;;;;;;5.95;4.72;;;;;;;;;;5061556;28;20280;-87
2021/10/30 00:35:26;;;;;;;4.38;4.00;;;;;;;;;;5057921;28;20577;-86
2021/10/30 00:37:53;;;;;;;4.68;4.28;;;;;;;;;;5059920;28;20562;-86
2021/10/30 00:40:22;;;;;;;5.75;4.45;;;;;;;;;;5058881;28;20260;-86
2021/10/30 00:42:50;;;;;;;4.50;4.10;;;;;;;;;;5057372;28;20234;-86
2021/10/30 00:45:18;;;;;;;5.35;4.88;;;;;;;;;;5057104;28;20205;-86
2021/10/30 00:47:45;;;;;;;4.38;3.92;;;;;;;;;;5057247;28;20240;-86
2021/10/30 00:50:14;;;;;;;4.85;4.18;;;;;;;;;;5057724;28;20805;-86
2021/10/30 00:52:43;;;;;;;6.03;5.43;;;;;;;;;;5058147;28;20194;-87
2021/10/30 00:55:11;;;;;;;4.97;4.55;;;;;;;;;;5059023;28;20202;-85
2021/10/30 00:57:40;;;;;;;4.93;4.50;;;;;;;;;;5058169;28;20178;-86
2021/10/30 01:00:09;;;;;;;4.05;3.67;;;;;;;;;;5058731;28;20237;-85
2021/10/30 01:02:37;;;;;;;5.22;4.72;;;;;;;;;;5056882;28;20677;-87
2021/10/30 01:05:05;;;;;;;5.43;4.68;;;;;;;;;;5058297;28;20575;-87
2021/10/30 01:07:35;;;;;;;5.90;5.35;;;;;;;;;;5059486;28;20647;-86
2021/10/30 01:10:04;;;;;;;6.53;5.93;;;;;;;;;;5059207;28;20217;-86
2021/10/30 01:12:32;;;;;;;4.88;4.47;;;;;;;;;;5057539;28;20547;-87
2021/10/30 01:15:01;;;;;;;6.05;5.55;;;;;;;;;;5057723;28;20177;-87
2021/10/30 01:17:28;;;;;;;5.82;5.20;;;;;;;;;;5058964;28;20272;-87
2021/10/30 01:19:58;;;;;;;5.03;4.30;;;;;;;;;;5058392;28;20221;-87
2021/10/30 01:22:27;;;;;;;6.10;5.50;;;;;;;;;;5057942;28;20265;-87
2021/10/30 01:24:55;;;;;;;5.93;4.93;;;;;;;;;;5058647;28;20190;-86
2021/10/30 01:27:23;;;;;;;4.38;3.90;;;;;;;;;;5056905;28;20182;-85
2021/10/30 01:29:52;;;;;;;5.15;4.75;;;;;;;;;;5057014;28;20220;-85
2021/10/30 01:32:21;;;;;;;4.75;4.32;;;;;;;;;;5056190;28;20185;-87
2021/10/30 01:34:49;;;;;;;5.35;4.85;;;;;;;;;;5057087;28;20630;-85
2021/10/30 01:37:18;;;;;;;5.40;4.90;;;;;;;;;;5057706;28;20632;-86
2021/10/30 01:39:47;;;;;;;4.55;4.15;;;;;;;;;;5055817;28;20221;-86
2021/10/30 01:42:14;;;;;;;5.53;5.03;;;;;;;;;;5056284;28;20232;-86
2021/10/30 01:44:42;;;;;;;6.47;5.43;;;;;;;;;;5057759;28;20198;-85
2021/10/30 01:47:09;;;;;;;6.18;5.68;;;;;;;;;;5056707;28;20213;-86
2021/10/30 01:49:37;;;;;;;7.03;6.38;;;;;;;;;;5056452;28;20559;-86
2021/10/30 01:52:05;;;;;;;6.20;5.60;;;;;;;;;;5056776;28;20281;-86
2021/10/30 01:54:35;;;;;;;5.57;5.07;;;;;;;;;;5055795;28;20186;-85
2021/10/30 01:57:02;;;;;;;6.50;5.90;;;;;;;;;;5057036;28;20197;-86
2021/10/30 01:59:31;;;;;;;5.28;4.78;;;;;;;;;;5056192;28;20222;-87
2021/10/30 02:01:58;;;;;;;6.80;5.82;;;;;;;;;;5058139;28;20665;-87
2021/10/30 02:04:26;;;;;;;5.22;4.72;;;;;;;;;;5055329;28;20202;-86
2021/10/30 02:06:54;;;;;;;6.07;5.47;;;;;;;;;;5053917;28;20722;-86
2021/10/30 02:09:22;;;;;;;7.05;6.43;;;;;;;;;;5056478;28;20229;-86
2021/10/30 02:11:51;;;;;;;5.93;5.43;;;;;;;;;;5056210;28;20205;-86
2021/10/30 02:14:18;;;;;;;6.22;5.63;;;;;;;;;;5057548;28;20190;-86
2021/10/30 02:16:46;;;;;;;6.93;5.95;;;;;;;;;;5057177;28;20202;-86
2021/10/30 02:19:13;;;;;;;7.78;7.03;;;;;;;;;;5058001;28;20222;-86
2021/10/30 02:21:40;;;;;;;6.70;5.97;;;;;;;;;;5057008;28;20229;-87
2021/10/30 02:24:08;;;;;;;7.43;6.68;;;;;;;;;;5058304;28;20185;-86
2021/10/30 02:26:35;;;;;;;8.48;7.60;;;;;;;;;;5058440;28;20186;-86
2021/10/30 02:29:04;;;;;;;7.95;7.05;;;;;;;;;;5057431;28;20222;-85
2021/10/30 02:31:32;;;;;;;7.55;6.55;;;;;;;;;;5057491;28;20201;-85
2021/10/30 02:33:59;;;;;;;7.63;6.93;;;;;;;;;;5056777;28;20208;-86
2021/10/30 02:36:27;;;;;;;7.20;6.38;;;;;;;;;;5055684;28;20209;-86
2021/10/30 02:38:54;;;;;;;6.68;6.00;;;;;;;;;;5057061;28;20225;-86
2021/10/30 02:41:21;;;;;;;8.43;6.97;;;;;;;;;;5055438;28;20217;-86
2021/10/30 02:43:49;;;;;;;7.35;6.65;;;;;;;;;;5056460;28;20196;-86
2021/10/30 02:46:19;;;;;;;7.80;7.03;;;;;;;;;;5055608;28;20178;-85
2021/10/30 02:48:46;;;;;;;6.50;5.78;;;;;;;;;;5055282;28;20263;-85
2021/10/30 02:51:14;;;;;;;8.95;8.05;;;;;;;;;;5055494;28;20202;-87
2021/10/30 02:53:41;;;;;;;7.55;6.75;;;;;;;;;;5054982;28;20638;-85
2021/10/30 02:56:09;;;;;;;7.20;6.50;;;;;;;;;;5055216;28;20189;-86
2021/10/30 02:58:36;;;;;;;5.78;5.28;;;;;;;;;;5055664;28;20193;-86
2021/10/30 03:01:04;;;;;;;5.40;4.90;;;;;;;;;;5056020;28;20555;-86
2021/10/30 03:03:33;;;;;;;5.05;4.57;;;;;;;;;;5055438;28;20188;-86
2021/10/30 03:06:00;;;;;;;4.93;4.30;;;;;;;;;;5054371;28;20205;-87
2021/10/30 03:08:27;;;;;;;5.40;5.00;;;;;;;;;;5054467;28;20201;-85
2021/10/30 03:10:55;;;;;;;4.30;3.92;;;;;;;;;;5054705;28;20221;-85
2021/10/30 03:13:22;;;;;;;4.45;4.05;;;;;;;;;;5054343;28;20189;-86
2021/10/30 03:15:50;;;;;;;4.03;3.70;;;;;;;;;;5054617;28;20201;-86
2021/10/30 03:18:17;;;;;;;4.13;3.83;;;;;;;;;;5054224;28;20206;-85
2021/10/30 03:20:46;;;;;;;4.40;4.00;;;;;;;;;;5054897;28;20208;-85
2021/10/30 03:23:15;;;;;;;4.68;4.03;;;;;;;;;;5054999;28;20265;-85
2021/10/30 03:25:43;;;;;;;4.22;3.88;;;;;;;;;;5056352;28;20198;-86
2021/10/30 03:28:10;;;;;;;3.67;3.38;;;;;;;;;;5056261;28;20214;-86
2021/10/30 03:30:38;;;;;;;3.92;3.63;;;;;;;;;;5054931;28;20219;-86
2021/10/30 03:33:05;;;;;;;3.70;3.40;;;;;;;;;;5054669;28;20222;-86
2021/10/30 03:35:33;;;;;;;3.80;3.50;;;;;;;;;;5054339;28;20190;-86
2021/10/30 03:38:02;;;;;;;3.05;2.75;;;;;;;;;;5054563;28;20197;-86
2021/10/30 03:40:29;;;;;;;3.70;3.40;;;;;;;;;;5054342;28;20750;-86
2021/10/30 03:42:56;;;;;;;3.65;3.35;;;;;;;;;;5055400;28;20720;-86
2021/10/30 03:45:24;;;;;;;5.72;5.22;;;;;;;;;;5055617;28;20189;-86
2021/10/30 03:47:52;;;;;;;3.88;3.55;;;;;;;;;;5055449;28;20696;-86
2021/10/30 03:50:21;;;;;;;6.18;5.60;;;;;;;;;;5055737;28;20593;-85
2021/10/30 03:52:48;;;;;;;7.03;6.20;;;;;;;;;;5057126;28;20186;-86
2021/10/30 03:55:17;;;;;;;5.40;4.90;;;;;;;;;;5057260;28;20201;-87
2021/10/30 03:57:44;;;;;;;5.32;4.82;;;;;;;;;;5054642;28;20186;-86
2021/10/30 04:00:13;;;;;;;6.53;5.93;;;;;;;;;;5055319;28;20213;-86
2021/10/30 04:02:41;;;;;;;6.68;6.00;;;;;;;;;;5054840;28;20202;-86
2021/10/30 04:05:09;;;;;;;6.10;5.50;;;;;;;;;;5055085;28;20182;-85
2021/10/30 04:07:37;;;;;;;6.35;5.72;;;;;;;;;;5055159;28;20200;-87
2021/10/30 04:10:06;;;;;;;5.20;4.75;;;;;;;;;;5053869;28;20222;-86
2021/10/30 04:12:35;;;;;;;6.22;5.63;;;;;;;;;;5055784;28;20205;-86
2021/10/30 04:15:02;;;;;;;6.80;5.47;;;;;;;;;;5055171;28;20549;-85
2021/10/30 04:17:30;;;;;;;5.80;5.20;;;;;;;;;;5056593;28;20205;-87
2021/10/30 04:19:57;;;;;;;6.43;5.38;;;;;;;;;;5053784;28;20221;-86
2021/10/30 04:22:26;;;;;;;5.20;4.70;;;;;;;;;;5054383;28;20666;-86
2021/10/30 04:24:55;;;;;;;4.82;4.43;;;;;;;;;;5054343;28;20220;-87
2021/10/30 04:27:22;;;;;;;5.40;4.90;;;;;;;;;;5054938;28;20190;-86
2021/10/30 04:29:51;;;;;;;6.03;5.43;;;;;;;;;;5055788;28;20592;-87
2021/10/30 04:32:18;;;;;;;6.18;5.60;;;;;;;;;;5053768;28;20709;-86
2021/10/30 04:34:48;;;;;;;5.88;5.30;;;;;;;;;;5054359;28;20190;-85
2021/10/30 04:37:16;;;;;;;7.30;6.65;;;;;;;;;;5053662;28;20225;-86
2021/10/30 04:39:46;;;;;;;7.25;6.45;;;;;;;;;;5054131;28;20221;-86
2021/10/30 04:42:14;;;;;;;6.95;6.25;;;;;;;;;;5053573;28;20282;-86
2021/10/30 04:44:41;;;;;;;7.00;6.30;;;;;;;;;;5057062;28;20642;-86
2021/10/30 04:47:12;;;;;;;7.32;6.63;;;;;;;;;;5055819;28;20187;-87
2021/10/30 04:49:39;;;;;;;6.75;6.07;;;;;;;;;;5057998;28;20300;-86
2021/10/30 04:52:09;;;;;;;8.13;7.13;;;;;;;;;;5060227;28;20199;-87
2021/10/30 04:54:36;;;;;;;6.95;6.30;;;;;;;;;;5059273;28;20257;-85
2021/10/30 04:57:05;;;;;;;6.80;6.20;;;;;;;;;;5060450;28;20588;-86
2021/10/30 04:59:33;;;;;;;6.57;5.88;;;;;;;;;;5061813;28;20596;-86
2021/10/30 05:02:02;;;;;;;7.47;6.70;;;;;;;;;;5062677;28;20206;-85
2021/10/30 05:04:31;;;;;;;6.93;6.22;;;;;;;;;;5060369;28;20217;-86
2021/10/30 05:06:58;;;;;;;5.70;5.10;;;;;;;;;;5055316;28;20190;-86
2021/10/30 05:09:26;;;;;;;8.43;7.50;;;;;;;;;;5059617;28;20220;-86
2021/10/30 05:11:53;;;;;;;8.40;6.22;;;;;;;;;;5060665;28;20198;-86
2021/10/30 05:14:21;;;;;;;6.90;6.20;;;;;;;;;;5059596;28;20197;-86
2021/10/30 05:16:48;;;;;;;8.20;7.03;;;;;;;;;;5062773;28;20258;-87
2021/10/30 05:19:16;;;;;;;7.95;7.07;;;;;;;;;;5061706;28;20224;-86
2021/10/30 05:21:45;;;;;;;7.80;6.72;;;;;;;;;;5059831;28;20206;-87
2021/10/30 05:24:13;;;;;;;9.30;7.97;;;;;;;;;;5048695;28;20565;-86
2021/10/30 05:26:41;;;;;;;8.65;7.75;;;;;;;;;;5058128;28;20209;-86
2021/10/30 05:29:08;;;;;;;7.93;7.05;;;;;;;;;;5057813;28;20218;-85
2021/10/30 05:31:36;;;;;;;8.00;7.28;;;;;;;;;;5058067;28;20185;-85
2021/10/30 05:34:03;;;;;;;9.40;8.50;;;;;;;;;;5060061;28;20227;-85
2021/10/30 05:36:33;;;;;;;8.25;7.45;;;;;;;;;;5059519;28;20204;-85
2021/10/30 05:39:05;;;;;;;7.72;6.97;;;;;;;;;;5060039;28;20217;-86
2021/10/30 05:41:32;;;;;;;7.50;6.47;;;;;;;;;;5078654;22;20231;-82
2021/10/30 05:44:00;;;;;;;8.27;7.47;;;;;;;;;;5121397;28;20206;-82
2021/10/30 05:46:28;;;;;;;6.03;5.53;;;;;;;;;;5015497;28;20207;-82
2021/10/30 05:48:56;;;;;;;8.32;7.50;;;;;;;;;;5018925;28;20187;-83
2021/10/30 05:51:24;;;;;;;8.20;7.38;;;;;;;;;;5019181;28;20223;-80
2021/10/30 05:53:51;;;;;;;7.18;6.47;;;;;;;;;;5019354;28;20183;-83
2021/10/30 05:56:20;;;;;;;7.55;6.80;;;;;;;;;;5019516;28;20635;-83
2021/10/30 05:58:47;;;;;;;7.32;6.35;;;;;;;;;;5019429;28;20214;-82
2021/10/30 06:01:15;;;;;;;6.78;5.55;;;;;;;;;;5018420;28;20219;-84
2021/10/30 06:03:42;;;;;;;6.22;5.55;;;;;;;;;;5019725;28;20230;-85
2021/10/30 06:06:10;;;;;;;8.75;7.80;;;;;;;;;;5018655;28;20211;-83
2021/10/30 06:08:37;;;;;;;9.48;8.52;;;;;;;;;;5019085;28;20255;-84
2021/10/30 06:11:05;;;;;;;9.68;8.40;;;;;;;;;;5019175;28;20209;-83
2021/10/30 06:13:35;;;;;;;9.45;8.55;;;;;;;;;;5019647;28;20279;-83
2021/10/30 06:16:03;;;;;;;8.00;7.20;;;;;;;;;;5019205;28;20278;-82
2021/10/30 06:18:31;;;;;;;8.05;7.25;;;;;;;;;;5019408;28;20202;-83
2021/10/30 06:20:58;;;;;;;7.10;6.40;;;;;;;;;;5019136;28;20545;-83
2021/10/30 06:23:25;;;;;;;7.15;6.45;;;;;;;;;;5019476;28;20204;-83
2021/10/30 06:25:53;;;;;;;5.35;4.88;;;;;;;;;;5018596;28;20584;-83
2021/10/30 06:28:20;;;;;;;6.35;5.75;;;;;;;;;;5018677;28;20184;-84
2021/10/30 06:30:49;;;;;;;10.52;7.03;;;;;;;;;;5019679;28;20199;-83
2021/10/30 06:33:17;;;;;;;8.25;7.18;;;;;;;;;;5021115;28;20234;-83
2021/10/30 06:35:44;;;;;;;6.57;5.97;;;;;;;;;;5021567;28;20183;-83
2021/10/30 06:38:13;;;;;;;6.97;6.38;;;;;;;;;;5021209;28;20192;-83
2021/10/30 06:40:40;;;;;;;6.38;5.78;;;;;;;;;;5022371;28;20255;-82
2021/10/30 06:43:08;;;;;;;5.57;5.07;;;;;;;;;;5022994;28;20321;-83
2021/10/30 06:45:35;;;;;;;8.10;7.28;;;;;;;;;;5024501;28;20211;-83
2021/10/30 06:48:05;;;;;;;7.43;6.72;;;;;;;;;;5022565;28;20179;-82
2021/10/30 06:50:33;;;;;;;8.50;7.78;;;;;;;;;;5020937;28;20231;-83
2021/10/30 06:53:00;;;;;;;6.55;5.85;;;;;;;;;;5020300;28;20728;-82
2021/10/30 06:55:28;;;;;;;6.50;5.90;;;;;;;;;;5020430;28;20203;-83
2021/10/30 06:57:55;;;;;;;8.55;7.57;;;;;;;;;;5020622;28;20596;-83
2021/10/30 07:00:24;;;;;;;8.32;6.95;;;;;;;;;;5020506;28;20241;-82
2021/10/30 07:02:52;;;;;;;8.23;6.55;;;;;;;;;;5020674;28;20219;-83
2021/10/30 07:05:22;;;;;;;7.53;6.68;;;;;;;;;;5021529;28;20627;-83
2021/10/30 07:07:49;;;;;;;7.97;7.18;;;;;;;;;;5020529;28;20195;-82
2021/10/30 07:10:17;;;;;;;8.05;7.10;;;;;;;;;;5020699;28;20215;-83
2021/10/30 07:12:45;;;;;;;7.57;6.78;;;;;;;;;;5020611;28;20245;-82
2021/10/30 07:15:15;;;;;;;7.47;6.78;;;;;;;;;;5022264;28;20214;-83
2021/10/30 07:17:42;;;;;;;6.78;6.07;;;;;;;;;;5022098;28;20199;-83
2021/10/30 07:20:11;;;;;;;5.80;5.20;;;;;;;;;;5022791;28;20282;-83
2021/10/30 07:22:44;;;;;;;6.57;5.88;;;;;;;;;;5022616;28;20223;-83
2021/10/30 07:25:13;;;;;;;5.82;5.32;;;;;;;;;;5023079;28;20223;-82
2021/10/30 07:27:41;;;;;;;6.13;5.35;;;;;;;;;;5023403;28;20198;-83
2021/10/30 07:30:11;;;;;;;6.82;6.15;;;;;;;;;;5023031;28;20203;-82
2021/10/30 07:32:39;;;;;;;6.47;5.90;;;;;;;;;;5023498;28;20265;-82
2021/10/30 07:35:08;;;;;;;5.75;5.25;;;;;;;;;;5022928;28;20199;-83
2021/10/30 07:37:36;;;;;;;6.75;6.05;;;;;;;;;;5021968;28;20183;-83
2021/10/30 07:40:05;;;;;;;6.85;6.25;;;;;;;;;;5023929;28;20186;-83
2021/10/30 07:42:33;;;;;;;7.78;6.78;;;;;;;;;;5023350;28;20246;-83
2021/10/30 07:45:01;;;;;;;6.57;5.97;;;;;;;;;;5019623;28;20227;-83
2021/10/30 07:47:29;;;;;;;6.13;5.47;;;;;;;;;;5018083;28;20218;-83
2021/10/30 07:49:57;;;;;;;6.22;5.65;;;;;;;;;;5018824;28;20206;-82
2021/10/30 07:52:24;;;;;;;7.60;6.90;;;;;;;;;;5017540;28;20242;-82
2021/10/30 07:54:52;;;;;;;8.25;7.55;;;;;;;;;;5019736;28;20587;-82
2021/10/30 07:57:21;;;;;;;9.20;8.05;;;;;;;;;;5020978;28;20571;-83
2021/10/30 07:59:50;;;;;;;8.48;7.45;;;;;;;;;;5021495;28;20223;-82
2021/10/30 08:02:18;;;;;;;9.10;8.20;;;;;;;;;;5016326;28;20288;-82
2021/10/30 08:04:47;;;;;;;8.43;7.60;;;;;;;;;;5014573;28;20242;-83
2021/10/30 08:07:14;;;;;;;8.18;7.38;;;;;;;;;;5014591;28;20191;-83
2021/10/30 08:09:43;;;;;;;8.20;7.05;;;;;;;;;;5011380;28;20584;-81
2021/10/30 08:12:11;;;;;;;9.52;8.55;;;;;;;;;;5011552;28;20732;-82
2021/10/30 08:14:42;;;;;;;9.77;8.35;;;;;;;;;;5011066;28;20188;-80
2021/10/30 08:17:09;;;;;;;8.98;8.18;;;;;;;;;;5011398;28;20195;-79
2021/10/30 08:19:37;;;;;;;9.35;8.45;;;;;;;;;;5011504;28;20194;-80
2021/10/30 08:22:05;;;;;;;9.23;8.32;;;;;;;;;;5012043;28;20315;-80
2021/10/30 08:24:33;;;;;;;11.63;9.25;;;;;;;;;;5014338;28;20219;-81
2021/10/30 08:27:00;;;;;;;11.32;10.20;;;;;;;;;;5016456;28;20196;-80
2021/10/30 08:29:29;;;;;;;12.85;9.75;;;;;;;;;;5016086;28;20191;-80
2021/10/30 08:31:57;;;;;;;9.38;8.27;;;;;;;;;;5015506;28;20231;-81
2021/10/30 08:34:25;;;;;;;11.38;9.95;;;;;;;;;;5015474;28;20601;-80
2021/10/30 08:36:52;;;;;;;10.73;8.48;;;;;;;;;;5016813;28;20188;-81
2021/10/30 08:39:20;;;;;;;11.30;9.60;;;;;;;;;;5015959;28;20206;-80
2021/10/30 08:41:48;;;;;;;10.55;9.45;;;;;;;;;;5016779;28;20238;-80
2021/10/30 08:44:16;;;;;;;10.13;8.80;;;;;;;;;;5016172;28;20234;-79
2021/10/30 08:46:43;;;;;;;8.25;7.43;;;;;;;;;;5016441;28;20187;-80
2021/10/30 08:49:13;;;;;;;11.10;9.68;;;;;;;;;;5015537;28;20207;-81
2021/10/30 08:51:41;;;;;;;10.07;9.07;;;;;;;;;;5016007;28;20219;-80
2021/10/30 08:54:08;;;;;;;9.35;8.20;;;;;;;;;;5015557;28;20560;-80
2021/10/30 08:56:37;;;;;;;9.57;8.18;;;;;;;;;;5015512;28;20577;-81
2021/10/30 08:59:06;;;;;;;8.80;7.93;;;;;;;;;;5015925;28;20199;-81
2021/10/30 09:01:45;;;;;;;11.50;9.90;;;;;;;;;;5008643;28;20226;-80
2021/10/30 09:04:16;;;;;;;9.63;8.70;;;;;;;;;;4997116;28;20701;-79
2021/10/30 09:06:56;;;;;;;10.43;9.32;;;;;;;;;;4996787;28;20184;-79
2021/10/30 09:09:23;;;;;;;8.85;7.95;;;;;;;;;;4997386;28;20188;-80
2021/10/30 09:11:56;;;;;;;7.85;7.05;;;;;;;;;;4996920;28;20231;-80
2021/10/30 09:14:26;;;;;;;8.00;7.25;;;;;;;;;;4996908;28;20188;-80
2021/10/30 09:17:15;;;;;;;8.82;7.95;;;;;;;;;;4996577;28;20184;-80
2021/10/30 09:19:47;;;;;;;8.45;7.60;;;;;;;;;;5005433;28;20195;-80
2021/10/30 09:22:16;;;;;;;9.40;7.43;;;;;;;;;;5016478;28;20219;-80
2021/10/30 09:25:04;;;;;;;11.35;10.02;;;;;;;;;;5016914;28;20207;-80
2021/10/30 09:27:54;;;;;;;10.40;9.07;;;;;;;;;;5017195;28;20576;-80
2021/10/30 09:30:25;;;;;;;10.10;9.13;;;;;;;;;;5016978;28;20194;-80
2021/10/30 09:32:59;;;;;;;9.88;8.52;;;;;;;;;;5016798;28;20211;-81
2021/10/30 09:35:40;;;;;;;11.13;9.88;;;;;;;;;;5016330;28;20187;-80
2021/10/30 09:38:13;;;;;;;11.40;9.30;;;;;;;;;;5017920;28;20228;-80
2021/10/30 09:40:42;;;;;;;10.10;9.10;;;;;;;;;;5017497;28;20545;-81
2021/10/30 09:43:16;;;;;;;10.93;9.90;;;;;;;;;;5017778;28;20268;-84
2021/10/30 09:45:48;;;;;;;10.93;9.82;;;;;;;;;;5017279;28;20214;-83
2021/10/30 09:48:21;;;;;;;10.80;9.55;;;;;;;;;;5019117;28;20635;-84
2021/10/30 09:50:53;;;;;;;10.25;8.88;;;;;;;;;;5017687;28;20226;-83
2021/10/30 09:53:30;;;;;;;10.25;9.25;;;;;;;;;;5017300;28;20175;-84
2021/10/30 09:56:00;;;;;;;9.07;7.90;;;;;;;;;;5016851;28;20183;-83
2021/10/30 09:58:39;;;;;;;9.23;8.30;;;;;;;;;;5017473;28;20272;-83
2021/10/30 10:01:12;;;;;;;10.52;9.15;;;;;;;;;;5017729;28;20281;-83
2021/10/30 10:03:41;;;;;;;10.50;9.07;;;;;;;;;;5017514;28;20199;-83
2021/10/30 10:06:14;;;;;;;9.60;8.68;;;;;;;;;;5017282;28;20617;-84
2021/10/30 10:08:43;;;;;;;8.27;7.40;;;;;;;;;;5019384;28;20199;-83
2021/10/30 10:11:13;;;;;;;9.30;8.00;;;;;;;;;;5009833;28;20202;-83
2021/10/30 10:13:42;;;;;;;8.13;7.32;;;;;;;;;;5000896;28;20714;-83
2021/10/30 10:16:15;;;;;;;11.43;8.90;;;;;;;;;;5000187;28;20204;-83
2021/10/30 10:18:43;;;;;;;6.95;6.35;;;;;;;;;;4999472;28;20259;-83
2021/10/30 10:21:15;;;;;;;9.45;8.55;;;;;;;;;;4999227;28;20560;-82
2021/10/30 10:23:43;;;;;;;10.07;9.10;;;;;;;;;;4998912;28;20686;-83
2021/10/30 10:26:12;;;;;;;6.50;5.90;;;;;;;;;;4998884;28;20220;-84
2021/10/30 10:28:40;;;;;;;8.05;7.25;;;;;;;;;;4999154;28;20199;-83
2021/10/30 10:31:12;;;;;;;7.80;7.00;;;;;;;;;;4999441;28;20203;-83
2021/10/30 10:33:42;;;;;;;10.07;9.07;;;;;;;;;;4999676;28;20204;-83
2021/10/30 10:36:26;;;;;;;10.13;9.10;;;;;;;;;;4999347;28;20199;-84
2021/10/30 10:39:16;;;;;;;11.05;10.05;;;;;;;;;;4999527;28;20240;-84
2021/10/30 10:42:08;;;;;;;10.07;9.02;;;;;;;;;;5002141;28;20242;-84
2021/10/30 10:45:01;;;;;;;11.00;9.70;;;;;;;;;;4998920;28;20287;-84
2021/10/30 10:48:08;;;;;;;9.73;7.97;;;;;;;;;;4998336;28;20208;-83
2021/10/30 10:50:43;;;;;;;9.63;8.70;;;;;;;;;;4999139;28;20207;-84
2021/10/30 10:53:32;;;;;;;8.82;8.02;;;;;;;;;;4998759;28;20219;-83
2021/10/30 10:56:23;;;;;;;9.48;8.57;;;;;;;;;;4999213;28;20192;-82
2021/10/30 10:59:36;;;;;;;11.30;10.07;;;;;;;;;;5008126;28;20577;-83
2021/10/30 11:02:22;;;;;;;9.13;8.23;;;;;;;;;;4998887;28;20253;-82
2021/10/30 11:05:27;;;;;;;12.27;11.07;;;;;;;;;;4997713;28;20644;-82
2021/10/30 11:08:30;;;;;;;12.10;10.85;;;;;;;;;;4998026;28;20578;-84
2021/10/30 11:11:25;;;;;;;13.35;11.55;;;;;;;;;;5004849;28;20195;-83
2021/10/30 11:14:01;;;;;;;14.00;11.65;;;;;;;;;;5018078;28;20209;-82
2021/10/30 11:16:33;;;;;;;13.05;11.75;;;;;;;;;;5018931;28;20226;-82
2021/10/30 11:19:33;;;;;;;13.23;12.05;;;;;;;;;;5018784;28;20183;-83
2021/10/30 11:22:14;;;;;;;11.88;10.68;;;;;;;;;;5018741;28;20223;-83
2021/10/30 11:24:56;;;;;;;15.10;13.63;;;;;;;;;;5018475;28;20224;-83
2021/10/30 11:27:24;;;;;;;12.73;11.23;;;;;;;;;;5018319;28;20227;-83
2021/10/30 11:29:53;;;;;;;13.00;11.63;;;;;;;;;;5018176;28;20183;-83
2021/10/30 11:32:22;;;;;;;12.55;10.85;;;;;;;;;;5018704;28;20313;-83
2021/10/30 11:34:54;;;;;;;14.40;11.25;;;;;;;;;;5019175;28;20243;-83
2021/10/30 11:37:22;;;;;;;13.15;11.80;;;;;;;;;;5019183;28;20199;-82
2021/10/30 11:39:49;;;;;;;14.55;12.75;;;;;;;;;;5018618;28;20203;-82
2021/10/30 11:42:18;;;;;;;13.55;11.32;;;;;;;;;;5018487;28;20288;-82
2021/10/30 11:44:56;;;;;;;12.50;11.07;;;;;;;;;;5014848;28;20708;-81
2021/10/30 11:47:26;;;;;;;14.15;12.75;;;;;;;;;;5013488;28;20701;-81
2021/10/30 11:49:54;;;;;;;14.95;13.15;;;;;;;;;;5013847;28;20658;-81
2021/10/30 11:52:22;;;;;;;14.77;13.25;;;;;;;;;;5013305;28;20728;-81
2021/10/30 11:54:55;;;;;;;13.23;11.80;;;;;;;;;;5013440;28;20567;-82
2021/10/30 11:57:24;;;;;;;12.73;11.43;;;;;;;;;;5012910;28;20236;-82
2021/10/30 12:00:03;;;;;;;13.60;12.20;;;;;;;;;;5013466;28;20728;-82
2021/10/30 12:02:30;;;;;;;14.52;11.75;;;;;;;;;;5013556;28;20226;-81
2021/10/30 12:05:13;;;;;;;12.48;11.18;;;;;;;;;;5013289;28;20207;-82
2021/10/30 12:07:45;;;;;;;11.38;10.20;;;;;;;;;;5012751;28;20218;-82
2021/10/30 12:10:13;;;;;;;12.07;10.73;;;;;;;;;;5013139;28;20202;-82
2021/10/30 12:12:44;;;;;;;12.80;11.43;;;;;;;;;;5012504;28;20706;-82
2021/10/30 12:15:11;;;;;;;11.00;9.75;;;;;;;;;;5012662;28;20553;-82
2021/10/30 12:17:39;;;;;;;11.40;10.20;;;;;;;;;;5013071;28;20187;-81
2021/10/30 12:20:09;;;;;;;11.65;10.32;;;;;;;;;;5012454;28;20199;-82
2021/10/30 12:22:40;;;;;;;10.63;9.52;;;;;;;;;;5012791;28;20219;-81
2021/10/30 12:25:10;;;;;;;9.95;8.95;;;;;;;;;;5012508;28;20210;-82
2021/10/30 12:27:52;;;;;;;10.02;9.00;;;;;;;;;;5012700;28;20203;-82
2021/10/30 12:30:21;;;;;;;9.70;8.80;;;;;;;;;;5012515;28;20641;-81
2021/10/30 12:32:51;;;;;;;9.43;8.40;;;;;;;;;;5011766;28;20226;-82
2021/10/30 12:35:21;;;;;;;8.77;7.88;;;;;;;;;;5012132;28;20209;-82
2021/10/30 12:37:49;;;;;;;10.10;9.07;;;;;;;;;;5013287;28;20194;-82
2021/10/30 12:40:21;;;;;;;8.07;7.28;;;;;;;;;;5012579;28;20590;-82
2021/10/30 12:43:07;;;;;;;9.48;8.35;;;;;;;;;;5012852;28;20270;-80
2021/10/30 12:45:47;;;;;;;8.65;7.75;;;;;;;;;;5013311;28;20243;-82
2021/10/30 12:48:17;;;;;;;10.63;9.05;;;;;;;;;;5012821;28;20302;-83
2021/10/30 12:50:54;;;;;;;9.85;8.05;;;;;;;;;;5013771;28;20202;-82
2021/10/30 12:53:27;;;;;;;9.35;8.30;;;;;;;;;;5012578;28;20627;-82
2021/10/30 12:56:04;;;;;;;9.00;7.85;;;;;;;;;;5015320;28;20600;-81
2021/10/30 12:58:44;;;;;;;9.35;8.35;;;;;;;;;;5014280;28;20206;-82
2021/10/30 13:01:20;;;;;;;7.65;6.85;;;;;;;;;;5013774;28;20191;-81
2021/10/30 13:03:50;;;;;;;9.05;8.15;;;;;;;;;;5013684;28;20194;-80
2021/10/30 13:06:20;;;;;;;8.45;7.65;;;;;;;;;;5012961;28;20191;-82
2021/10/30 13:08:49;;;;;;;9.32;8.43;;;;;;;;;;5013055;28;20716;-83
2021/10/30 13:11:18;;;;;;;9.18;8.02;;;;;;;;;;5017491;28;20280;-83
2021/10/30 13:13:48;;;;;;;8.45;7.65;;;;;;;;;;5016963;28;20234;-82
2021/10/30 13:16:16;;;;;;;9.02;8.13;;;;;;;;;;5016758;28;20191;-82
2021/10/30 13:18:45;;;;;;;8.77;7.82;;;;;;;;;;5017426;28;20202;-83
2021/10/30 13:21:17;;;;;;;8.48;7.65;;;;;;;;;;5016528;28;20207;-82
2021/10/30 13:23:46;;;;;;;8.50;7.65;;;;;;;;;;5002896;28;20207;-83
2021/10/30 13:26:14;;;;;;;7.88;7.18;;;;;;;;;;5004658;28;20222;-83
2021/10/30 13:28:41;;;;;;;9.52;7.65;;;;;;;;;;5018671;28;20215;-83
2021/10/30 13:31:10;;;;;;;8.68;7.85;;;;;;;;;;5018454;28;20188;-84
2021/10/30 13:33:38;;;;;;;9.32;8.15;;;;;;;;;;5020620;28;20202;-83
2021/10/30 13:36:06;;;;;;;8.57;7.60;;;;;;;;;;5021209;28;20211;-82
2021/10/30 13:38:33;;;;;;;9.15;7.25;;;;;;;;;;5014724;28;20191;-84
2021/10/30 13:41:01;;;;;;;9.68;7.63;;;;;;;;;;5011532;28;20194;-85
2021/10/30 13:43:29;;;;;;;7.80;7.00;;;;;;;;;;5014498;28;20206;-82
2021/10/30 13:45:59;;;;;;;9.13;7.80;;;;;;;;;;5008977;28;20205;-84
2021/10/30 13:48:28;;;;;;;8.75;7.85;;;;;;;;;;5008265;28;20251;-82
2021/10/30 13:50:56;;;;;;;8.40;7.40;;;;;;;;;;5008275;28;20583;-84
2021/10/30 13:53:23;;;;;;;8.20;7.40;;;;;;;;;;5005588;28;20652;-83
2021/10/30 13:55:50;;;;;;;7.88;7.10;;;;;;;;;;5004293;28;20198;-84
2021/10/30 13:58:18;;;;;;;8.57;7.40;;;;;;;;;;5013133;28;20199;-85
2021/10/30 14:00:46;;;;;;;7.40;6.70;;;;;;;;;;5019067;28;20788;-84
2021/10/30 14:03:13;;;;;;;9.23;8.30;;;;;;;;;;5019196;28;20230;-83
2021/10/30 14:05:42;;;;;;;6.57;5.95;;;;;;;;;;5017979;28;20200;-83
2021/10/30 14:08:09;;;;;;;6.47;5.88;;;;;;;;;;5017834;28;20211;-83
2021/10/30 14:10:37;;;;;;;8.45;7.15;;;;;;;;;;5020064;28;20203;-84
2021/10/30 14:13:05;;;;;;;6.90;6.20;;;;;;;;;;5016754;28;20219;-83
2021/10/30 14:15:32;;;;;;;6.82;6.13;;;;;;;;;;5016074;28;20200;-84
2021/10/30 14:18:00;;;;;;;7.18;6.47;;;;;;;;;;5018928;28;20195;-84
2021/10/30 14:20:27;;;;;;;5.90;4.57;;;;;;;;;;5020017;28;20283;-83
2021/10/30 14:22:56;;;;;;;5.97;5.45;;;;;;;;;;5018020;28;20230;-85
2021/10/30 14:25:23;;;;;;;7.10;6.38;;;;;;;;;;5007403;28;20183;-83
2021/10/30 14:27:51;;;;;;;9.07;7.70;;;;;;;;;;5011655;28;20230;-85
2021/10/30 14:30:18;;;;;;;8.23;7.43;;;;;;;;;;5022481;28;20211;-84
2021/10/30 14:32:46;;;;;;;10.27;7.57;;;;;;;;;;5022626;28;20282;-84
2021/10/30 14:35:13;;;;;;;7.28;6.20;;;;;;;;;;5022449;28;20266;-84
2021/10/30 14:37:41;;;;;;;7.63;6.82;;;;;;;;;;5021238;28;20210;-84
2021/10/30 14:40:11;;;;;;;8.02;7.28;;;;;;;;;;5021016;28;20219;-84
2021/10/30 14:42:39;;;;;;;8.07;6.63;;;;;;;;;;5019549;28;20589;-83
2021/10/30 14:45:14;;;;;;;7.90;7.05;;;;;;;;;;5020024;28;20183;-82
2021/10/30 14:47:41;;;;;;;9.35;8.50;;;;;;;;;;5019263;28;20273;-84
2021/10/30 14:50:10;;;;;;;7.65;6.95;;;;;;;;;;5018264;28;20275;-83
2021/10/30 14:52:38;;;;;;;8.23;7.50;;;;;;;;;;5016744;28;20250;-84
2021/10/30 14:55:06;;;;;;;7.78;6.68;;;;;;;;;;5016871;28;20179;-84